Time;durP1;ratioP1;P1;durP2;ratioP2;P2;SDS_P1;SDS_P2;PMS_P1;PMS_P2;Temp;Humidity;BMP_temperature;BMP_pressure;BME280_temperature;BME280_humidity;BME280_pressure;Samples;Min_cycle;Max_cycle;Signal;HPM_P1;HPM_P2
2022/04/08 00:01:54;;;;;;;2.00;0.70;;;;;;;8.31;71.96;96262.78;107896;1279;22552;-75
2022/04/08 00:04:21;;;;;;;1.60;0.70;;;;;;;8.30;71.51;96273.95;107914;1279;22559;-74
2022/04/08 00:06:48;;;;;;;1.90;0.60;;;;;;;8.29;70.93;96269.88;107916;1279;24473;-74
2022/04/08 00:09:15;;;;;;;1.70;0.60;;;;;;;8.28;70.50;96266.10;107987;1279;22614;-74
2022/04/08 00:11:42;;;;;;;2.30;0.80;;;;;;;8.29;70.08;96262.72;107930;1279;22562;-74
2022/04/08 00:14:09;;;;;;;2.30;0.60;;;;;;;8.38;69.69;96262.67;107898;1281;22706;-74
2022/04/08 00:16:38;;;;;;;2.00;0.80;;;;;;;8.42;69.58;96258.94;107925;1279;22547;-75
2022/04/08 00:19:05;;;;;;;4.30;1.30;;;;;;;8.45;69.60;96265.75;107944;1279;22618;-74
2022/04/08 00:21:32;;;;;;;3.20;0.90;;;;;;;8.46;68.45;96256.83;107943;1279;22555;-75
2022/04/08 00:23:59;;;;;;;7.10;1.50;;;;;;;8.48;68.19;96263.29;107968;1279;22648;-74
2022/04/08 00:26:26;;;;;;;2.10;0.80;;;;;;;8.48;67.50;96265.15;107923;1279;22604;-75
2022/04/08 00:28:53;;;;;;;2.50;0.90;;;;;;;8.50;67.41;96272.27;107902;1279;24236;-74
2022/04/08 00:31:21;;;;;;;2.40;0.90;;;;;;;8.49;67.14;96269.02;107950;1279;22589;-74
2022/04/08 00:33:48;;;;;;;2.40;0.90;;;;;;;8.49;67.25;96274.94;107938;1278;22583;-74
2022/04/08 00:36:15;;;;;;;2.10;0.80;;;;;;;8.48;66.85;96269.98;107915;1279;22741;-74
2022/04/08 00:38:42;;;;;;;2.30;0.80;;;;;;;8.46;66.51;96275.71;108027;1279;22562;-74
2022/04/08 00:41:10;;;;;;;3.00;1.10;;;;;;;8.47;66.17;96280.52;107939;1279;22558;-74
2022/04/08 00:43:40;;;;;;;2.10;0.90;;;;;;;8.48;66.09;96283.00;107890;1279;22635;-74
2022/04/08 00:46:09;;;;;;;2.80;0.80;;;;;;;8.49;66.64;96296.82;107891;1279;22577;-74
2022/04/08 00:48:37;;;;;;;2.40;1.10;;;;;;;8.44;66.70;96301.73;107933;1279;24337;-74
2022/04/08 00:51:08;;;;;;;4.40;1.30;;;;;;;8.40;66.02;96304.11;107921;1279;22832;-74
2022/04/08 00:53:36;;;;;;;7.30;1.70;;;;;;;8.34;66.06;96303.60;107928;1279;22849;-74
2022/04/08 00:56:04;;;;;;;4.30;1.70;;;;;;;8.29;66.38;96303.33;107912;1279;22618;-74
2022/04/08 00:58:32;;;;;;;2.60;1.00;;;;;;;8.27;66.05;96307.45;107987;1279;22883;-74
2022/04/08 01:00:59;;;;;;;2.20;0.70;;;;;;;8.24;66.34;96305.66;107914;1279;22602;-75
2022/04/08 01:03:26;;;;;;;2.60;1.10;;;;;;;8.20;66.31;96302.28;107946;1279;22655;-74
2022/04/08 01:05:53;;;;;;;1.40;0.80;;;;;;;8.18;66.32;96303.10;107922;1279;22564;-74
2022/04/08 01:08:20;;;;;;;3.60;0.80;;;;;;;8.17;66.21;96312.38;107916;1279;22625;-74
2022/04/08 01:10:49;;;;;;;1.60;0.60;;;;;;;8.20;66.13;96321.17;107904;1279;22737;-74
2022/04/08 01:13:16;;;;;;;2.90;1.00;;;;;;;8.21;66.59;96324.88;107966;1279;22593;-74
2022/04/08 01:15:44;;;;;;;3.50;1.00;;;;;;;8.21;66.70;96329.42;107949;1279;26396;-74
2022/04/08 01:18:12;;;;;;;4.10;1.00;;;;;;;8.15;66.46;96327.47;107916;1279;22656;-75
2022/04/08 01:20:39;;;;;;;3.70;1.00;;;;;;;8.12;66.11;96329.35;107982;1279;22617;-75
2022/04/08 01:23:06;;;;;;;1.90;0.80;;;;;;;8.05;65.81;96333.13;108206;1279;22645;-74
2022/04/08 01:25:34;;;;;;;2.80;0.90;;;;;;;8.01;65.47;96334.73;108204;1279;22578;-75
2022/04/08 01:28:01;;;;;;;2.40;0.80;;;;;;;7.96;65.19;96338.67;108199;1279;22568;-75
2022/04/08 01:30:28;;;;;;;2.80;0.90;;;;;;;7.90;64.92;96339.16;108192;1279;22546;-75
2022/04/08 01:32:55;;;;;;;2.20;0.80;;;;;;;7.83;64.37;96340.83;108197;1279;22564;-74
2022/04/08 01:35:23;;;;;;;2.10;0.80;;;;;;;7.78;64.41;96338.31;108184;1279;22654;-75
2022/04/08 01:37:50;;;;;;;2.60;0.80;;;;;;;7.75;64.19;96343.59;108208;1279;24339;-75
2022/04/08 01:40:17;;;;;;;3.70;1.00;;;;;;;7.73;64.29;96345.34;108226;1279;22552;-75
2022/04/08 01:42:44;;;;;;;2.30;0.60;;;;;;;7.71;64.18;96349.39;108187;1279;22632;-75
2022/04/08 01:45:11;;;;;;;1.50;0.70;;;;;;;7.69;64.05;96350.08;108197;1279;22560;-74
2022/04/08 01:47:38;;;;;;;2.10;0.50;;;;;;;7.73;64.06;96353.16;108189;1279;22559;-74
2022/04/08 01:50:07;;;;;;;1.70;0.40;;;;;;;7.73;64.06;96356.77;108214;1279;25450;-75
2022/04/08 01:52:34;;;;;;;2.30;0.80;;;;;;;7.73;64.12;96364.59;108205;1279;25256;-74
2022/04/08 01:55:05;;;;;;;2.70;0.60;;;;;;;7.72;63.41;96365.89;108181;1279;22652;-74
2022/04/08 01:57:33;;;;;;;4.10;0.90;;;;;;;7.73;63.15;96372.55;108079;1276;272412;-74
2022/04/08 02:00:02;;;;;;;3.80;0.90;;;;;;;7.72;62.58;96373.02;108271;1279;25255;-75
2022/04/08 02:02:30;;;;;;;2.40;0.80;;;;;;;7.72;62.71;96377.34;108210;1279;22535;-75
2022/04/08 02:04:57;;;;;;;2.60;0.70;;;;;;;7.72;62.07;96380.64;108218;1279;25457;-75
2022/04/08 02:07:26;;;;;;;3.10;0.80;;;;;;;7.70;61.81;96385.11;108279;1279;25492;-75
2022/04/08 02:09:53;;;;;;;2.50;0.90;;;;;;;7.67;61.18;96393.19;108199;1279;25240;-75
2022/04/08 02:12:21;;;;;;;4.20;1.00;;;;;;;7.67;60.98;96400.48;108219;1279;22547;-75
2022/04/08 02:14:48;;;;;;;2.40;0.90;;;;;;;7.66;60.57;96403.50;108174;1279;22553;-75
2022/04/08 02:17:15;;;;;;;3.20;1.20;;;;;;;7.65;60.67;96406.09;108182;1279;23288;-75
2022/04/08 02:19:42;;;;;;;3.70;1.10;;;;;;;7.63;60.03;96405.73;108186;1279;22553;-75
2022/04/08 02:22:09;;;;;;;3.40;0.90;;;;;;;7.60;59.43;96407.91;108284;1279;22728;-75
2022/04/08 02:24:37;;;;;;;3.10;1.10;;;;;;;7.56;58.91;96412.03;108157;1279;25333;-75
2022/04/08 02:27:06;;;;;;;4.20;1.20;;;;;;;7.54;58.83;96420.70;108186;1279;22581;-75
2022/04/08 02:29:34;;;;;;;2.30;0.80;;;;;;;7.53;58.75;96421.81;108193;1279;22543;-77
2022/04/08 02:32:01;;;;;;;6.00;1.10;;;;;;;7.52;58.85;96424.79;108206;1279;22549;-75
2022/04/08 02:34:28;;;;;;;3.20;0.80;;;;;;;7.52;58.87;96426.42;108202;1279;22556;-74
2022/04/08 02:36:55;;;;;;;2.70;1.00;;;;;;;7.51;58.79;96427.93;108198;1279;22576;-77
2022/04/08 02:39:22;;;;;;;2.70;1.00;;;;;;;7.49;58.68;96434.79;108187;1279;22617;-77
2022/04/08 02:41:49;;;;;;;4.00;1.00;;;;;;;7.49;58.68;96437.11;108168;1279;22714;-74
2022/04/08 02:44:16;;;;;;;3.20;1.00;;;;;;;7.47;58.61;96440.35;108177;1279;22883;-75
2022/04/08 02:46:44;;;;;;;4.50;1.00;;;;;;;7.43;58.49;96443.09;108174;1279;22883;-74
2022/04/08 02:49:11;;;;;;;3.00;1.10;;;;;;;7.38;58.44;96442.19;108183;1278;22565;-74
2022/04/08 02:51:38;;;;;;;4.50;1.00;;;;;;;7.32;58.55;96441.52;108211;1279;22677;-74
2022/04/08 02:54:05;;;;;;;3.90;1.00;;;;;;;7.26;58.40;96446.85;108197;1279;22662;-75
2022/04/08 02:56:32;;;;;;;3.00;1.00;;;;;;;7.21;58.33;96452.50;108186;1279;22550;-74
2022/04/08 02:59:00;;;;;;;2.40;1.00;;;;;;;7.17;58.57;96455.46;108218;1279;22543;-74
2022/04/08 03:01:28;;;;;;;3.50;0.90;;;;;;;7.13;58.38;96460.96;108207;1279;25422;-74
2022/04/08 03:03:55;;;;;;;4.90;1.20;;;;;;;7.08;58.43;96465.34;108272;1279;22546;-74
2022/04/08 03:06:22;;;;;;;5.20;1.30;;;;;;;7.05;58.20;96466.54;108298;1279;22616;-75
2022/04/08 03:08:49;;;;;;;3.80;0.90;;;;;;;6.99;58.09;96467.85;108177;1279;22703;-74
2022/04/08 03:11:16;;;;;;;5.20;1.30;;;;;;;6.95;58.04;96473.25;108179;1279;25436;-74
2022/04/08 03:13:43;;;;;;;4.40;1.10;;;;;;;6.90;58.21;96476.23;108188;1279;22588;-75
2022/04/08 03:16:10;;;;;;;3.90;1.30;;;;;;;6.85;58.11;96471.21;108214;1279;22665;-75
2022/04/08 03:18:37;;;;;;;3.00;0.90;;;;;;;6.79;58.06;96473.92;108215;1279;22559;-76
2022/04/08 03:21:04;;;;;;;3.30;0.90;;;;;;;6.72;58.11;96471.18;108190;1279;25297;-76
2022/04/08 03:23:31;;;;;;;3.60;1.00;;;;;;;6.67;58.29;96472.83;108205;1279;22546;-76
2022/04/08 03:25:58;;;;;;;3.90;1.00;;;;;;;6.63;58.37;96482.38;108210;1279;22571;-76
2022/04/08 03:28:25;;;;;;;4.40;1.70;;;;;;;6.56;58.44;96490.74;108197;1279;22529;-76
2022/04/08 03:30:53;;;;;;;6.00;1.70;;;;;;;6.49;58.29;96494.03;108186;1279;22554;-76
2022/04/08 03:33:20;;;;;;;4.30;1.10;;;;;;;6.43;58.34;96495.80;108198;1279;22554;-76
2022/04/08 03:35:47;;;;;;;5.00;1.40;;;;;;;6.38;58.20;96492.88;108217;1279;22557;-76
2022/04/08 03:38:14;;;;;;;7.80;1.80;;;;;;;6.33;58.36;96495.35;108203;1279;22628;-76
2022/04/08 03:40:42;;;;;;;4.70;1.60;;;;;;;6.28;58.29;96500.95;108188;1279;22645;-76
2022/04/08 03:43:09;;;;;;;4.30;1.20;;;;;;;6.23;58.33;96498.10;108192;1279;22549;-76
2022/04/08 03:45:36;;;;;;;6.40;1.40;;;;;;;6.19;58.10;96502.70;108210;1279;22514;-76
2022/04/08 03:48:03;;;;;;;3.40;1.20;;;;;;;6.15;57.86;96499.42;108191;1279;22666;-76
2022/04/08 03:50:31;;;;;;;7.70;1.40;;;;;;;6.11;57.63;96504.62;108297;1279;22565;-76
2022/04/08 03:52:58;;;;;;;5.90;1.30;;;;;;;6.08;57.52;96512.48;108186;1278;22557;-76
2022/04/08 03:55:25;;;;;;;4.10;1.10;;;;;;;6.06;57.83;96515.91;108182;1278;22629;-76
2022/04/08 03:57:52;;;;;;;3.60;1.00;;;;;;;6.02;57.62;96521.55;108184;1279;26576;-76
2022/04/08 04:00:19;;;;;;;4.60;0.90;;;;;;;6.01;57.13;96514.92;108199;1279;22839;-76
2022/04/08 04:02:46;;;;;;;4.00;0.70;;;;;;;6.00;57.03;96517.34;108185;1279;22547;-75
2022/04/08 04:05:14;;;;;;;4.20;0.90;;;;;;;6.01;56.91;96520.73;108193;1279;22541;-76
2022/04/08 04:07:41;;;;;;;4.90;1.00;;;;;;;6.01;56.47;96523.55;108185;1279;22632;-77
2022/04/08 04:10:08;;;;;;;3.20;0.90;;;;;;;6.03;56.33;96524.42;108198;1279;22553;-76
2022/04/08 04:12:35;;;;;;;4.70;1.20;;;;;;;6.04;55.93;96522.09;108192;1279;22538;-74
2022/04/08 04:15:04;;;;;;;3.10;0.80;;;;;;;6.06;56.04;96522.86;108264;1279;23204;-74
2022/04/08 04:17:31;;;;;;;2.80;0.90;;;;;;;6.08;55.68;96537.40;108312;1278;22553;-75
2022/04/08 04:19:59;;;;;;;3.40;0.90;;;;;;;6.09;55.44;96539.52;108211;1279;22711;-75
2022/04/08 04:22:26;;;;;;;4.80;1.00;;;;;;;6.10;55.23;96545.65;108184;1279;22547;-76
2022/04/08 04:24:53;;;;;;;3.80;1.00;;;;;;;6.13;54.97;96554.94;108222;1279;23216;-75
2022/04/08 04:27:20;;;;;;;7.00;1.10;;;;;;;6.17;54.92;96556.88;108312;1279;22569;-76
2022/04/08 04:29:47;;;;;;;4.90;1.00;;;;;;;6.18;54.84;96558.27;108219;1279;22562;-76
2022/04/08 04:32:17;;;;;;;4.10;1.00;;;;;;;6.21;54.65;96561.88;108191;1279;22632;-75
2022/04/08 04:34:45;;;;;;;5.30;1.50;;;;;;;6.21;54.71;96562.38;108202;1279;24379;-75
2022/04/08 04:37:12;;;;;;;3.50;1.10;;;;;;;6.22;54.84;96568.01;108187;1279;22554;-75
2022/04/08 04:39:39;;;;;;;3.40;1.10;;;;;;;6.25;54.46;96575.05;108222;1279;24436;-75
2022/04/08 04:42:07;;;;;;;4.90;1.30;;;;;;;6.24;54.71;96573.69;108192;1279;22697;-75
2022/04/08 04:44:34;;;;;;;4.10;0.90;;;;;;;6.25;54.67;96578.30;108204;1279;22569;-75
2022/04/08 04:47:02;;;;;;;6.00;1.50;;;;;;;6.26;54.77;96585.30;108204;1279;22555;-75
2022/04/08 04:49:29;;;;;;;4.00;0.90;;;;;;;6.29;54.46;96588.36;108295;1279;22559;-75
2022/04/08 04:51:56;;;;;;;4.80;1.50;;;;;;;6.34;54.75;96590.90;108190;1279;22665;-75
2022/04/08 04:54:23;;;;;;;4.30;1.40;;;;;;;6.43;54.99;96596.38;108205;1279;22556;-75
2022/04/08 04:56:50;;;;;;;4.60;0.90;;;;;;;6.53;55.13;96596.27;108212;1279;24439;-74
2022/04/08 04:59:18;;;;;;;4.20;1.10;;;;;;;6.65;55.54;96603.20;108222;1279;22720;-75
2022/04/08 05:01:45;;;;;;;4.20;1.00;;;;;;;6.76;55.54;96608.73;108186;1279;22634;-75
2022/04/08 05:04:12;;;;;;;4.40;1.40;;;;;;;6.87;55.22;96607.45;108198;1279;22557;-75
2022/04/08 05:06:39;;;;;;;3.90;1.10;;;;;;;7.06;55.61;96611.27;108181;1279;22635;-74
2022/04/08 05:09:06;;;;;;;7.70;1.10;;;;;;;7.29;55.60;96618.04;108206;1279;22541;-74
2022/04/08 05:11:33;;;;;;;6.00;1.20;;;;;;;7.55;55.59;96611.62;108194;1279;22547;-75
2022/04/08 05:14:00;;;;;;;5.40;1.40;;;;;;;7.66;54.69;96620.75;108297;1279;22623;-75
2022/04/08 05:16:29;;;;;;;5.50;1.40;;;;;;;7.86;54.78;96624.80;108224;1279;22560;-74
2022/04/08 05:18:56;;;;;;;8.00;2.10;;;;;;;8.06;54.15;96623.88;108175;1279;22563;-74
2022/04/08 05:21:24;;;;;;;4.10;1.40;;;;;;;8.27;53.86;96625.55;108189;1279;22554;-74
2022/04/08 05:23:51;;;;;;;4.40;1.60;;;;;;;8.48;52.76;96629.73;108287;1279;22656;-75
2022/04/08 05:26:18;;;;;;;6.10;1.80;;;;;;;8.68;52.48;96636.67;108294;1279;22555;-75
2022/04/08 05:28:46;;;;;;;9.00;1.70;;;;;;;8.85;52.18;96642.23;108208;1279;22547;-75
2022/04/08 05:31:13;;;;;;;7.60;2.40;;;;;;;8.93;50.84;96645.84;108173;1279;24388;-75
2022/04/08 05:33:40;;;;;;;7.50;2.00;;;;;;;9.00;50.65;96647.80;108278;1279;22629;-75
2022/04/08 05:36:08;;;;;;;5.00;1.70;;;;;;;9.01;50.22;96649.48;108286;1279;22554;-75
2022/04/08 05:38:35;;;;;;;5.00;1.50;;;;;;;8.99;50.09;96649.48;108301;1279;22797;-74
2022/04/08 05:41:02;;;;;;;5.60;1.60;;;;;;;8.95;49.82;96658.90;108316;1279;23936;-75
2022/04/08 05:43:29;;;;;;;5.80;1.20;;;;;;;8.84;49.46;96659.37;108263;1279;25240;-75
2022/04/08 05:45:56;;;;;;;3.30;1.30;;;;;;;8.74;49.21;96668.10;108159;1279;22566;-75
2022/04/08 05:48:23;;;;;;;4.80;1.80;;;;;;;8.70;49.30;96671.58;108028;1279;24505;-76
2022/04/08 05:50:50;;;;;;;8.40;1.70;;;;;;;8.65;49.35;96676.10;108020;1279;23118;-75
2022/04/08 05:53:18;;;;;;;5.50;1.30;;;;;;;8.67;49.36;96677.36;108013;1279;22559;-75
2022/04/08 05:55:45;;;;;;;5.20;1.80;;;;;;;8.68;48.87;96677.80;108049;1279;22561;-75
2022/04/08 05:58:12;;;;;;;4.70;1.50;;;;;;;8.66;48.92;96682.98;108037;1279;26313;-74
2022/04/08 06:00:39;;;;;;;5.40;1.60;;;;;;;8.62;49.02;96687.29;108010;1279;22933;-73
2022/04/08 06:03:07;;;;;;;11.50;3.50;;;;;;;8.57;48.61;96694.21;108051;1279;22575;-74
2022/04/08 06:05:34;;;;;;;10.60;2.90;;;;;;;8.45;48.81;96697.80;107990;1279;22564;-74
2022/04/08 06:08:01;;;;;;;5.60;1.80;;;;;;;8.39;48.91;96704.92;108015;1279;22623;-74
2022/04/08 06:10:28;;;;;;;6.20;1.60;;;;;;;8.34;49.04;96707.32;108022;1279;22715;-75
2022/04/08 06:12:55;;;;;;;8.30;1.70;;;;;;;8.23;48.44;96714.44;108055;1279;22629;-75
2022/04/08 06:15:24;;;;;;;14.70;4.80;;;;;;;8.21;48.86;96711.03;108019;1279;22672;-75
2022/04/08 06:17:51;;;;;;;14.90;5.30;;;;;;;8.15;48.89;96715.04;108054;1279;22870;-75
2022/04/08 06:20:19;;;;;;;13.80;4.40;;;;;;;8.13;49.21;96711.04;108033;1279;22680;-75
2022/04/08 06:22:49;;;;;;;7.90;1.70;;;;;;;8.12;48.92;96710.60;107989;1279;24612;-77
2022/04/08 06:25:19;;;;;;;5.20;1.40;;;;;;;8.10;48.70;96721.14;108060;1278;23071;-74
2022/04/08 06:27:56;;;;;;;4.80;1.60;;;;;;;8.12;48.79;96722.91;108016;1279;22569;-75
2022/04/08 06:30:24;;;;;;;16.30;4.90;;;;;;;8.20;48.74;96725.14;108023;1279;22622;-75
2022/04/08 06:32:51;;;;;;;6.60;1.30;;;;;;;8.27;48.69;96724.20;107876;1279;26585;-75
2022/04/08 06:35:18;;;;;;;25.30;8.30;;;;;;;8.33;48.32;96728.58;107932;1279;22584;-75
2022/04/08 06:37:46;;;;;;;8.70;2.90;;;;;;;8.45;47.97;96725.30;108066;1279;22691;-76
2022/04/08 06:40:13;;;;;;;3.90;1.30;;;;;;;8.61;47.31;96725.42;107927;1279;25197;-75
2022/04/08 06:42:41;;;;;;;5.40;1.40;;;;;;;8.78;47.09;96732.31;107927;1279;22700;-77
2022/04/08 06:45:08;;;;;;;26.30;10.70;;;;;;;8.92;47.29;96740.75;107925;1279;22548;-74
2022/04/08 06:47:47;;;;;;;20.30;9.00;;;;;;;9.05;46.76;96738.84;107920;1279;24268;-75
2022/04/08 06:50:15;;;;;;;7.10;2.40;;;;;;;9.20;46.70;96741.02;107961;1279;23517;-76
2022/04/08 06:52:42;;;;;;;6.20;2.10;;;;;;;9.33;46.16;96744.35;107918;1279;22635;-76
2022/04/08 06:55:09;;;;;;;10.80;4.50;;;;;;;9.45;46.38;96746.74;107927;1279;22700;-76
2022/04/08 06:57:37;;;;;;;18.50;6.90;;;;;;;9.61;45.37;96750.55;107919;1279;22644;-74
2022/04/08 07:00:06;;;;;;;19.00;7.00;;;;;;;9.69;45.05;96752.16;107960;1279;23381;-74
2022/04/08 07:02:33;;;;;;;9.40;4.40;;;;;;;9.78;44.88;96750.14;107958;1279;22591;-77
2022/04/08 07:05:01;;;;;;;12.20;4.10;;;;;;;9.85;45.10;96754.38;107922;1279;24239;-74
2022/04/08 07:07:32;;;;;;;28.80;12.20;;;;;;;9.86;44.89;96758.27;107936;1279;22586;-74
2022/04/08 07:09:59;;;;;;;8.50;3.50;;;;;;;9.92;44.33;96761.36;107950;1279;22700;-75
2022/04/08 07:12:27;;;;;;;9.90;3.90;;;;;;;9.95;44.19;96766.16;107934;1279;23369;-74
2022/04/08 07:14:55;;;;;;;18.30;6.70;;;;;;;9.95;44.09;96767.92;108040;1279;22910;-74
2022/04/08 07:17:30;;;;;;;12.90;5.40;;;;;;;9.96;44.70;96774.36;107915;1279;25376;-75
2022/04/08 07:19:58;;;;;;;10.50;3.60;;;;;;;9.96;43.72;96768.00;107989;1279;22797;-73
2022/04/08 07:22:26;;;;;;;37.20;14.10;;;;;;;9.99;43.87;96779.72;107922;1279;22629;-75
2022/04/08 07:24:54;;;;;;;20.20;8.70;;;;;;;10.12;42.37;96772.60;107923;1279;22631;-74
2022/04/08 07:27:22;;;;;;;33.40;3.80;;;;;;;10.08;42.33;96782.48;107995;1279;22603;-76
2022/04/08 07:29:50;;;;;;;33.30;15.30;;;;;;;10.19;42.80;96783.45;108030;1279;22735;-75
2022/04/08 07:32:21;;;;;;;11.80;5.30;;;;;;;10.42;42.83;96784.75;107957;1279;22553;-75
2022/04/08 07:34:50;;;;;;;53.50;24.00;;;;;;;10.67;42.71;96788.69;107906;1279;22600;-74
2022/04/08 07:37:31;;;;;;;12.30;5.50;;;;;;;10.94;42.07;96787.84;107936;1279;22583;-77
2022/04/08 07:39:59;;;;;;;27.40;11.80;;;;;;;11.10;42.10;96800.04;107958;1279;22572;-76
2022/04/08 07:42:26;;;;;;;33.80;16.30;;;;;;;11.25;42.43;96806.17;108206;1279;24449;-77
2022/04/08 07:44:53;;;;;;;86.70;39.30;;;;;;;11.38;41.74;96804.85;108232;1279;22588;-75
2022/04/08 07:47:21;;;;;;;92.80;41.80;;;;;;;11.36;41.39;96804.15;108078;1279;22591;-75
2022/04/08 07:49:48;;;;;;;96.50;42.10;;;;;;;11.35;41.31;96801.41;108217;1279;22642;-75
2022/04/08 07:52:15;;;;;;;89.90;39.70;;;;;;;11.33;41.08;96812.27;108114;1279;22636;-75
2022/04/08 07:54:45;;;;;;;39.50;20.20;;;;;;;11.24;40.70;96816.12;108177;1279;22574;-75
2022/04/08 07:57:13;;;;;;;21.60;12.00;;;;;;;11.12;40.72;96824.98;108120;1279;24457;-75
2022/04/08 07:59:40;;;;;;;29.90;15.40;;;;;;;11.01;40.94;96827.24;108161;1279;22537;-75
2022/04/08 08:02:07;;;;;;;36.90;20.50;;;;;;;10.96;41.17;96834.48;108279;1279;22558;-75
2022/04/08 08:04:34;;;;;;;37.60;21.20;;;;;;;10.92;41.05;96836.05;108210;1279;22549;-75
2022/04/08 08:07:02;;;;;;;14.10;7.30;;;;;;;10.85;41.44;96852.69;108207;1279;22563;-75
2022/04/08 08:09:29;;;;;;;12.20;6.10;;;;;;;10.93;40.88;96847.46;108202;1278;22556;-74
2022/04/08 08:11:56;;;;;;;33.40;16.40;;;;;;;11.02;40.41;96850.23;108279;1279;22708;-75
2022/04/08 08:14:23;;;;;;;8.90;4.00;;;;;;;11.07;40.02;96848.77;108183;1279;24302;-75
2022/04/08 08:16:50;;;;;;;30.70;17.20;;;;;;;11.08;39.90;96850.43;108212;1279;22620;-75
2022/04/08 08:19:17;;;;;;;25.10;14.20;;;;;;;11.06;40.12;96854.83;108186;1279;22564;-75
2022/04/08 08:21:44;;;;;;;16.30;7.80;;;;;;;11.12;40.90;96865.01;108218;1279;22694;-75
2022/04/08 08:24:11;;;;;;;28.80;15.90;;;;;;;11.25;40.81;96872.73;108266;1279;22541;-74
2022/04/08 08:26:39;;;;;;;23.10;10.80;;;;;;;11.24;40.80;96870.46;108204;1279;22553;-75
2022/04/08 08:29:06;;;;;;;15.50;6.10;;;;;;;11.23;39.94;96876.16;108202;1279;22665;-75
2022/04/08 08:31:33;;;;;;;9.00;3.70;;;;;;;11.10;39.92;96874.77;108194;1279;25290;-74
2022/04/08 08:34:00;;;;;;;25.20;11.40;;;;;;;10.90;39.95;96885.69;108211;1279;23752;-77
2022/04/08 08:36:27;;;;;;;11.80;3.80;;;;;;;10.78;40.13;96892.58;108209;1279;22703;-77
2022/04/08 08:38:54;;;;;;;7.40;3.00;;;;;;;10.78;39.98;96891.87;108196;1279;25547;-77
2022/04/08 08:41:24;;;;;;;49.90;24.10;;;;;;;10.71;39.82;96899.01;108308;1279;24477;-77
2022/04/08 08:43:54;;;;;;;12.10;6.00;;;;;;;10.65;40.21;96903.69;108199;1278;22560;-77
2022/04/08 08:46:21;;;;;;;42.20;13.60;;;;;;;10.55;40.30;96902.58;108212;1279;22646;-77
2022/04/08 08:48:50;;;;;;;28.70;10.50;;;;;;;10.53;39.96;96902.55;108218;1279;22564;-77
2022/04/08 08:51:20;;;;;;;7.70;3.40;;;;;;;10.56;40.19;96907.73;108221;1279;22750;-77
2022/04/08 08:53:47;;;;;;;62.50;28.20;;;;;;;10.65;39.76;96914.37;108204;1279;22633;-77
2022/04/08 08:56:15;;;;;;;57.40;28.00;;;;;;;10.70;40.28;96907.95;108297;1279;22542;-77
2022/04/08 08:58:42;;;;;;;26.90;13.10;;;;;;;10.86;40.34;96911.69;108212;1279;22565;-74
2022/04/08 09:01:11;;;;;;;59.90;24.90;;;;;;;10.99;40.46;96912.77;108277;1279;22533;-75
2022/04/08 09:03:41;;;;;;;16.00;7.10;;;;;;;11.10;40.42;96911.67;108223;1279;22548;-76
2022/04/08 09:06:09;;;;;;;25.50;12.70;;;;;;;11.17;40.47;96915.42;108190;1279;22669;-75
2022/04/08 09:08:38;;;;;;;14.20;5.20;;;;;;;11.31;39.61;96923.13;108227;1279;22539;-75
2022/04/08 09:11:06;;;;;;;9.90;4.60;;;;;;;11.35;39.28;96919.63;108219;1279;22562;-74
2022/04/08 09:13:44;;;;;;;10.30;5.90;;;;;;;11.48;39.33;96917.84;108173;1279;24501;-75
2022/04/08 09:16:11;;;;;;;80.60;41.20;;;;;;;11.53;39.98;96920.45;108199;1279;23356;-75
2022/04/08 09:18:41;;;;;;;29.80;18.50;;;;;;;11.58;40.02;96922.42;108235;1279;22660;-75
2022/04/08 09:21:09;;;;;;;64.20;30.20;;;;;;;11.54;40.01;96925.30;108213;1279;22541;-76
2022/04/08 09:23:39;;;;;;;97.70;35.40;;;;;;;11.57;40.41;96928.14;108295;1279;22635;-76
2022/04/08 09:26:14;;;;;;;100.60;38.60;;;;;;;11.73;39.88;96928.98;108202;1279;22557;-76
2022/04/08 09:28:41;;;;;;;24.50;12.10;;;;;;;11.81;39.31;96927.60;108184;1279;22629;-75
2022/04/08 09:31:17;;;;;;;15.10;6.70;;;;;;;11.82;39.18;96938.25;108180;1279;22567;-76
2022/04/08 09:33:49;;;;;;;12.90;5.20;;;;;;;11.89;38.81;96937.42;108268;1279;22537;-76
2022/04/08 09:36:40;;;;;;;31.10;15.20;;;;;;;11.92;38.30;96935.08;108218;1279;22628;-76
2022/04/08 09:39:10;;;;;;;22.00;10.40;;;;;;;11.89;38.74;96938.64;108286;1279;22617;-75
2022/04/08 09:41:42;;;;;;;158.00;74.60;;;;;;;11.97;38.79;96941.73;108274;1279;22552;-76
2022/04/08 09:44:11;;;;;;;62.30;32.50;;;;;;;12.06;38.80;96940.11;108295;1279;22707;-75
2022/04/08 09:46:40;;;;;;;26.10;13.20;;;;;;;12.19;39.41;96939.39;108229;1279;24099;-75
2022/04/08 09:49:08;;;;;;;16.20;8.00;;;;;;;12.31;39.14;96938.31;108182;1279;23241;-78
2022/04/08 09:51:40;;;;;;;33.10;15.40;;;;;;;12.32;39.01;96935.42;108209;1279;25381;-75
2022/04/08 09:54:10;;;;;;;11.10;5.40;;;;;;;12.25;38.81;96938.55;108201;1279;22995;-75
2022/04/08 09:56:38;;;;;;;11.40;6.50;;;;;;;12.19;38.48;96938.86;108201;1279;22552;-75
2022/04/08 09:59:14;;;;;;;49.80;28.50;;;;;;;12.19;38.48;96940.92;108284;1279;22554;-75
2022/04/08 10:01:45;;;;;;;19.80;11.00;;;;;;;12.20;38.72;96946.39;108256;1279;22542;-75
2022/04/08 10:04:12;;;;;;;29.00;18.50;;;;;;;12.28;38.63;96945.90;108223;1279;22534;-78
2022/04/08 10:06:42;;;;;;;33.90;19.40;;;;;;;12.40;39.12;96953.86;107933;1279;22625;-74
2022/04/08 10:09:11;;;;;;;23.90;12.30;;;;;;;12.50;38.67;96948.81;107922;1279;22554;-75
2022/04/08 10:11:50;;;;;;;70.50;42.20;;;;;;;12.49;38.56;96948.98;108008;1279;22635;-76
2022/04/08 10:14:35;;;;;;;58.90;34.30;;;;;;;12.46;38.60;96952.04;108095;1279;22552;-75
2022/04/08 10:17:03;;;;;;;26.70;14.80;;;;;;;12.54;38.66;96952.29;107987;1279;22550;-75
2022/04/08 10:19:31;;;;;;;71.80;33.70;;;;;;;12.71;38.25;96946.39;107949;1279;22733;-75
2022/04/08 10:21:59;;;;;;;41.60;19.60;;;;;;;12.82;38.34;96947.88;107982;1279;22653;-75
2022/04/08 10:24:31;;;;;;;61.00;33.50;;;;;;;12.91;38.42;96942.10;107988;1279;23511;-75
2022/04/08 10:27:04;;;;;;;20.00;11.30;;;;;;;13.08;38.44;96941.91;108035;1279;22626;-74
2022/04/08 10:29:33;;;;;;;62.50;32.10;;;;;;;13.20;37.63;96937.73;107951;1279;22650;-75
2022/04/08 10:32:12;;;;;;;30.70;17.50;;;;;;;13.30;38.00;96944.60;107913;1279;22574;-75
2022/04/08 10:34:40;;;;;;;215.20;95.00;;;;;;;13.29;37.85;96944.88;107902;1276;22626;-75
2022/04/08 10:37:20;;;;;;;61.50;35.00;;;;;;;13.24;37.79;96945.69;107904;1277;23226;-74
2022/04/08 10:39:58;;;;;;;246.50;96.60;;;;;;;13.18;37.65;96961.02;107900;1279;22530;-75
2022/04/08 10:42:27;;;;;;;86.00;37.70;;;;;;;13.15;37.46;96960.42;107994;1277;22634;-74
2022/04/08 10:44:55;;;;;;;26.80;16.00;;;;;;;13.09;37.72;96962.81;107997;1277;22784;-74
2022/04/08 10:47:27;;;;;;;9.90;5.20;;;;;;;13.21;38.03;96952.13;108007;1277;22710;-74
2022/04/08 10:50:00;;;;;;;29.30;18.60;;;;;;;13.36;37.88;96947.84;107993;1278;22552;-74
2022/04/08 10:52:29;;;;;;;21.50;10.60;;;;;;;13.47;37.52;96947.86;108026;1277;22593;-75
2022/04/08 10:55:10;;;;;;;41.90;21.40;;;;;;;13.73;37.91;96953.55;108032;1278;22690;-74
2022/04/08 10:57:45;;;;;;;45.40;26.60;;;;;;;13.98;37.14;96953.05;108028;1277;22581;-74
2022/04/08 11:00:19;;;;;;;36.20;20.10;;;;;;;14.14;37.15;96950.68;108037;1277;22650;-76
2022/04/08 11:02:47;;;;;;;79.50;43.50;;;;;;;14.28;36.70;96954.15;108021;1279;23467;-74
2022/04/08 11:05:18;;;;;;;35.10;17.60;;;;;;;14.37;36.17;96958.12;108001;1278;23373;-75
2022/04/08 11:07:48;;;;;;;152.80;69.40;;;;;;;14.44;35.88;96956.21;108010;1278;22588;-74
2022/04/08 11:10:20;;;;;;;33.60;19.10;;;;;;;14.47;35.27;96945.31;107994;1278;22566;-74
2022/04/08 11:12:53;;;;;;;25.10;12.30;;;;;;;14.39;35.02;96952.55;108021;1278;22563;-73
2022/04/08 11:15:27;;;;;;;11.00;6.10;;;;;;;14.46;35.41;96961.05;108185;1278;24102;-74
2022/04/08 11:17:54;;;;;;;6.40;2.40;;;;;;;14.51;34.95;96960.88;108010;1278;22631;-73
2022/04/08 11:20:23;;;;;;;6.40;1.80;;;;;;;14.41;34.63;96961.79;108438;1278;22557;-75
2022/04/08 11:22:54;;;;;;;4.20;1.70;;;;;;;14.30;34.46;96963.83;108149;1277;22786;-75
2022/04/08 11:25:28;;;;;;;46.20;27.20;;;;;;;14.26;34.74;96967.40;108013;1278;22572;-75
2022/04/08 11:28:06;;;;;;;10.30;4.60;;;;;;;14.26;35.26;96970.20;108032;1277;25332;-75
2022/04/08 11:30:35;;;;;;;69.50;35.50;;;;;;;14.26;34.98;96965.77;107958;1278;22580;-74